TimeEDT,TemperatureF,Dew PointF,Humidity,Sea Level PressureIn,VisibilityMPH,Wind Direction,Wind SpeedMPH,Gust SpeedMPH,PrecipitationIn,Events,Conditions,WindDirDegrees,DateUTC
12:15 AM,68.0,66.6,95,29.98,10.0,Calm,Calm,-,N/A,,Clear,0,2013-06-27 04:15:00
12:35 AM,68.0,66.6,95,29.99,10.0,Calm,Calm,-,N/A,,Clear,0,2013-06-27 04:35:00
12:55 AM,68.0,66.4,95,29.98,10.0,Calm,Calm,-,N/A,,Scattered Clouds,0,2013-06-27 04:55:00
1:15 AM,68.0,66.4,95,29.97,10.0,Calm,Calm,-,N/A,,Overcast,0,2013-06-27 05:15:00
1:35 AM,68.5,66.6,93,29.96,10.0,Calm,Calm,-,N/A,,Overcast,0,2013-06-27 05:35:00
2:15 AM,69.8,66.2,88,29.94,10.0,WSW,3.5,-,N/A,,Overcast,250,2013-06-27 06:15:00
2:35 AM,68.9,66.2,91,29.93,10.0,Calm,Calm,-,N/A,,Scattered Clouds,0,2013-06-27 06:35:00
2:55 AM,69.1,66.4,91,29.92,10.0,South,3.5,-,N/A,,Scattered Clouds,190,2013-06-27 06:55:00
3:15 AM,69.8,67.1,91,29.91,10.0,Calm,Calm,-,N/A,,Overcast,0,2013-06-27 07:15:00
3:35 AM,69.8,67.1,91,29.90,10.0,SSW,3.5,-,N/A,,Overcast,210,2013-06-27 07:35:00
3:55 AM,69.8,66.9,91,29.89,10.0,Calm,Calm,-,N/A,,Overcast,0,2013-06-27 07:55:00
4:15 AM,69.8,67.3,92,29.88,10.0,SSW,3.5,-,N/A,,Overcast,210,2013-06-27 08:15:00
4:35 AM,69.8,67.5,92,29.88,10.0,SW,3.5,-,N/A,,Overcast,220,2013-06-27 08:35:00
4:55 AM,69.4,67.3,93,29.88,10.0,SSW,3.5,-,N/A,,Overcast,210,2013-06-27 08:55:00
5:15 AM,69.8,67.5,92,29.88,10.0,SSW,3.5,-,N/A,,Overcast,200,2013-06-27 09:15:00
5:35 AM,69.8,68.0,94,29.88,7.0,South,3.5,-,N/A,,Overcast,190,2013-06-27 09:35:00
5:55 AM,69.8,68.0,94,29.87,5.0,Calm,Calm,-,N/A,,Overcast,0,2013-06-27 09:55:00
6:15 AM,69.8,68.2,95,29.86,4.0,SSE,3.5,-,N/A,,Overcast,160,2013-06-27 10:15:00
6:35 AM,69.8,68.2,95,29.85,2.5,SW,3.5,-,N/A,,Overcast,220,2013-06-27 10:35:00
6:55 AM,69.8,68.0,94,29.85,5.0,Calm,Calm,-,N/A,,Overcast,0,2013-06-27 10:55:00
7:15 AM,70.5,68.7,94,29.86,5.0,Calm,Calm,-,N/A,,Overcast,0,2013-06-27 11:15:00
7:35 AM,70.7,68.9,94,29.86,5.0,Calm,Calm,-,N/A,,Overcast,0,2013-06-27 11:35:00
7:55 AM,71.8,69.3,92,29.85,7.0,WSW,4.6,-,N/A,,Overcast,240,2013-06-27 11:55:00
8:15 AM,72.5,69.1,89,29.86,7.0,WSW,4.6,-,N/A,,Overcast,250,2013-06-27 12:15:00
8:55 AM,73.0,69.3,88,29.86,10.0,WSW,4.6,-,N/A,,Mostly Cloudy,240,2013-06-27 12:55:00
10:15 AM,76.1,68.9,78,29.87,10.0,WSW,4.6,-,N/A,,Scattered Clouds,250,2013-06-27 14:15:00
10:35 AM,76.6,68.5,76,29.87,10.0,WSW,6.9,-,N/A,,Mostly Cloudy,240,2013-06-27 14:35:00
10:55 AM,73.2,68.9,86,29.87,10.0,Calm,Calm,-,N/A,Rain,Light Rain,0,2013-06-27 14:55:00
11:15 AM,73.8,69.6,87,29.87,10.0,Calm,Calm,-,N/A,,Mostly Cloudy,0,2013-06-27 15:15:00
11:35 AM,76.6,69.8,79,29.87,10.0,SW,3.5,-,N/A,,Overcast,220,2013-06-27 15:35:00
11:55 AM,77.7,68.9,74,29.87,10.0,Calm,Calm,-,0.01,,Mostly Cloudy,0,2013-06-27 15:55:00
12:15 PM,78.1,68.2,71,29.87,10.0,Calm,Calm,-,N/A,,Overcast,0,2013-06-27 16:15:00
12:35 PM,77.7,68.5,73,29.86,10.0,Calm,Calm,-,N/A,,Overcast,0,2013-06-27 16:35:00
12:55 PM,78.8,68.9,72,29.86,10.0,South,4.6,-,N/A,,Overcast,180,2013-06-27 16:55:00
1:15 PM,80.6,68.4,66,29.85,10.0,SSW,9.2,-,N/A,,Scattered Clouds,210,2013-06-27 17:15:00
1:35 PM,82.8,68.7,62,29.85,10.0,SSW,6.9,-,N/A,,Scattered Clouds,200,2013-06-27 17:35:00
1:55 PM,83.1,68.5,61,29.84,10.0,SW,5.8,16.1,N/A,,Scattered Clouds,230,2013-06-27 17:55:00
2:15 PM,84.6,69.3,60,29.83,10.0,SSW,8.1,-,N/A,,Clear,210,2013-06-27 18:15:00
2:35 PM,85.1,69.3,59,29.83,10.0,WSW,4.6,-,N/A,,Scattered Clouds,240,2013-06-27 18:35:00
2:55 PM,86.5,69.8,57,29.83,10.0,WSW,8.1,-,N/A,,Scattered Clouds,250,2013-06-27 18:55:00
3:15 PM,85.5,69.4,59,29.81,10.0,SSW,4.6,-,N/A,,Scattered Clouds,210,2013-06-27 19:15:00
3:35 PM,83.5,69.8,63,29.81,10.0,WSW,3.5,-,N/A,,Mostly Cloudy,250,2013-06-27 19:35:00
3:55 PM,84.6,70.3,62,29.80,10.0,West,5.8,9.2,N/A,,Mostly Cloudy,270,2013-06-27 19:55:00
4:15 PM,83.3,70.3,65,29.79,10.0,WSW,5.8,-,N/A,,Overcast,250,2013-06-27 20:15:00
4:35 PM,81.9,70.2,68,29.79,10.0,WSW,3.5,-,N/A,,Overcast,250,2013-06-27 20:35:00
4:55 PM,83.7,71.6,67,29.78,10.0,SW,4.6,-,N/A,,Overcast,220,2013-06-27 20:55:00
5:15 PM,83.8,70.7,64,29.78,10.0,WSW,5.8,-,N/A,,Mostly Cloudy,240,2013-06-27 21:15:00
5:35 PM,85.1,71.6,64,29.78,10.0,SSW,3.5,-,N/A,,Scattered Clouds,200,2013-06-27 21:35:00
5:55 PM,85.5,71.4,63,29.78,10.0,WSW,4.6,-,N/A,,Clear,240,2013-06-27 21:55:00
6:15 PM,84.2,72.0,67,29.77,10.0,SW,6.9,-,N/A,,Scattered Clouds,230,2013-06-27 22:15:00
6:35 PM,84.6,71.6,65,29.77,10.0,Calm,Calm,-,N/A,,Scattered Clouds,0,2013-06-27 22:35:00
6:55 PM,83.7,71.8,67,29.77,10.0,Calm,Calm,-,N/A,,Clear,0,2013-06-27 22:55:00
7:15 PM,84.2,72.5,68,29.77,10.0,SW,4.6,-,N/A,,Clear,220,2013-06-27 23:15:00
7:35 PM,82.6,71.8,70,29.77,10.0,Calm,Calm,-,N/A,,Scattered Clouds,0,2013-06-27 23:35:00
7:55 PM,82.4,71.4,69,29.78,10.0,Calm,Calm,-,N/A,,Scattered Clouds,0,2013-06-27 23:55:00
8:15 PM,80.8,71.8,74,29.78,10.0,Calm,Calm,-,N/A,,Scattered Clouds,0,2013-06-28 00:15:00
8:35 PM,78.4,72.0,80,29.79,10.0,WSW,3.5,-,N/A,,Clear,250,2013-06-28 00:35:00
8:55 PM,77.4,71.1,81,29.80,10.0,WSW,3.5,-,N/A,,Clear,240,2013-06-28 00:55:00
9:15 PM,76.6,70.5,81,29.80,10.0,Calm,Calm,-,N/A,,Clear,0,2013-06-28 01:15:00
9:35 PM,74.5,69.6,85,29.80,10.0,Calm,Calm,-,N/A,,Clear,0,2013-06-28 01:35:00
9:55 PM,74.1,69.4,85,29.81,10.0,Calm,Calm,-,N/A,,Mostly Cloudy,0,2013-06-28 01:55:00
10:15 PM,75.2,69.1,81,29.81,10.0,Calm,Calm,-,N/A,,Overcast,0,2013-06-28 02:15:00
10:35 PM,74.8,69.6,84,29.81,10.0,Calm,Calm,-,N/A,,Overcast,0,2013-06-28 02:35:00
10:55 PM,74.1,69.8,86,29.80,10.0,Calm,Calm,-,N/A,,Overcast,0,2013-06-28 02:55:00
11:15 PM,73.6,68.9,85,29.80,10.0,Calm,Calm,-,N/A,,Overcast,0,2013-06-28 03:15:00
11:35 PM,75.2,68.0,78,29.80,10.0,Calm,Calm,-,N/A,,Scattered Clouds,0,2013-06-28 03:35:00
11:55 PM,71.8,68.7,90,29.80,10.0,Calm,Calm,-,N/A,,Clear,0,2013-06-28 03:55:00